createdAt,value
2018-10-02T00:01:53.004Z,88.33
2018-10-02T00:04:21.904Z,87.28
2018-10-02T00:06:50.890Z,87.42
2018-10-02T00:09:19.873Z,87.07
2018-10-02T00:11:54.399Z,87.20
2018-10-02T00:14:26.425Z,87.03
2018-10-02T00:16:55.408Z,86.99
2018-10-02T00:19:24.644Z,87.29
2018-10-02T00:21:53.656Z,86.54
2018-10-02T00:24:22.671Z,86.72
2018-10-02T00:26:51.652Z,88.59
2018-10-02T00:29:20.782Z,88.09
2018-10-02T00:31:49.717Z,88.18
2018-10-02T00:34:18.625Z,87.78
2018-10-02T00:36:47.537Z,87.78
2018-10-02T00:39:16.457Z,87.99
2018-10-02T00:41:45.500Z,88.64
2018-10-02T00:44:14.686Z,87.84
2018-10-02T00:46:43.848Z,88.56
2018-10-02T00:49:12.811Z,88.16
2018-10-02T00:51:41.801Z,87.99
2018-10-02T00:54:10.728Z,88.89
2018-10-02T00:56:39.621Z,87.67
2018-10-02T00:59:08.512Z,88.45
2018-10-02T01:01:37.450Z,87.82
2018-10-02T01:04:06.685Z,87.61
2018-10-02T01:06:35.779Z,87.21
2018-10-02T01:09:07.653Z,86.65
2018-10-02T01:11:36.818Z,86.70
2018-10-02T01:14:05.776Z,87.12
2018-10-02T01:16:34.691Z,86.34
2018-10-02T01:19:03.637Z,86.55
2018-10-02T01:21:32.621Z,86.37
2018-10-02T01:24:01.567Z,86.81
2018-10-02T01:26:30.509Z,86.95
2018-10-02T01:28:59.437Z,87.17
2018-10-02T01:31:28.410Z,87.33
2018-10-02T01:33:57.315Z,86.49
2018-10-02T01:36:26.607Z,86.34
2018-10-02T01:38:55.584Z,86.08
2018-10-02T01:41:24.524Z,85.77
2018-10-02T01:43:53.713Z,85.96
2018-10-02T01:46:22.808Z,86.77
2018-10-02T01:48:51.875Z,86.34
2018-10-02T01:51:20.826Z,86.00
2018-10-02T01:53:49.812Z,86.12
2018-10-02T01:56:18.772Z,86.61
2018-10-02T01:58:47.813Z,85.98
2018-10-02T02:01:16.809Z,86.74
2018-10-02T02:03:45.766Z,86.58
2018-10-02T02:06:14.686Z,86.90
2018-10-02T02:08:43.599Z,87.39
2018-10-02T02:11:12.531Z,87.78
2018-10-02T02:13:41.507Z,86.57
2018-10-02T02:16:10.387Z,86.50
2018-10-02T02:18:39.297Z,86.44
2018-10-02T02:21:12.171Z,87.56
2018-10-02T02:23:41.048Z,85.96
2018-10-02T02:26:09.961Z,86.23
2018-10-02T02:28:38.895Z,86.57
2018-10-02T02:31:07.798Z,86.47
2018-10-02T02:33:36.739Z,86.83
2018-10-02T02:36:06.610Z,86.22
2018-10-02T02:38:35.617Z,86.55
2018-10-02T02:41:04.566Z,86.32
2018-10-02T02:43:33.464Z,86.91
2018-10-02T02:46:02.566Z,88.00
2018-10-02T02:49:35.232Z,86.70
2018-10-02T02:52:04.184Z,87.32
2018-10-02T02:54:39.396Z,87.48
2018-10-02T02:57:08.311Z,87.46
2018-10-02T02:59:37.305Z,86.41
2018-10-02T03:02:06.224Z,87.10
2018-10-02T03:04:35.146Z,86.94
2018-10-02T03:07:04.071Z,87.18
2018-10-02T03:09:33.043Z,87.07
2018-10-02T03:12:01.941Z,87.31
2018-10-02T03:14:30.844Z,87.76
2018-10-02T03:16:59.847Z,87.78
2018-10-02T03:19:28.740Z,87.49
2018-10-02T03:21:57.716Z,88.23
2018-10-02T03:24:26.570Z,87.79
2018-10-02T03:26:56.726Z,87.64
2018-10-02T03:29:25.690Z,87.85
2018-10-02T03:31:54.604Z,87.97
2018-10-02T03:34:23.557Z,87.59
2018-10-02T03:36:52.964Z,88.27
2018-10-02T03:39:21.872Z,88.17
2018-10-02T03:41:50.811Z,87.68
2018-10-02T03:44:19.682Z,87.94
2018-10-02T03:46:48.566Z,88.15
2018-10-02T03:49:17.521Z,87.75
2018-10-02T03:51:46.439Z,87.09
2018-10-02T03:54:15.356Z,87.49
2018-10-02T03:56:44.248Z,87.53
2018-10-02T03:59:13.197Z,88.17
2018-10-02T04:01:42.146Z,87.84
2018-10-02T04:04:11.042Z,87.64
2018-10-02T04:06:40.026Z,87.48
2018-10-02T04:09:10.132Z,87.60
2018-10-02T04:11:39.041Z,86.59
2018-10-02T04:14:08.563Z,86.82
2018-10-02T04:16:37.801Z,87.31
2018-10-02T04:19:06.672Z,86.77
2018-10-02T04:21:36.470Z,87.34
2018-10-02T04:24:07.233Z,87.29
2018-10-02T04:26:37.101Z,86.68
2018-10-02T04:29:06.598Z,86.87
2018-10-02T04:31:36.837Z,87.59
2018-10-02T04:34:05.891Z,86.93
2018-10-02T04:36:34.826Z,87.20
2018-10-02T04:39:05.124Z,87.13
2018-10-02T04:41:34.103Z,87.13
2018-10-02T04:44:03.028Z,87.47
2018-10-02T04:46:31.983Z,88.00
2018-10-02T04:49:00.913Z,87.11
2018-10-02T04:51:29.824Z,87.30
2018-10-02T04:53:58.756Z,87.17
2018-10-02T04:56:27.719Z,86.88
2018-10-02T04:58:56.630Z,87.74
2018-10-02T05:01:25.506Z,87.17
2018-10-02T05:03:54.456Z,87.18
2018-10-02T05:06:23.409Z,86.32
2018-10-02T05:08:52.425Z,86.45
2018-10-02T05:11:21.723Z,86.82
2018-10-02T05:13:50.679Z,87.24
2018-10-02T05:16:19.586Z,87.85
2018-10-02T05:18:48.484Z,87.42
2018-10-02T05:21:17.423Z,86.74
2018-10-02T05:23:46.296Z,86.87
2018-10-02T05:26:15.241Z,87.17
2018-10-02T05:28:44.121Z,86.72
2018-10-02T05:31:13.043Z,86.58
2018-10-02T05:33:42.032Z,87.03
2018-10-02T05:36:10.892Z,86.67
2018-10-02T05:38:39.853Z,86.89
2018-10-02T05:41:08.797Z,86.89
2018-10-02T05:43:37.761Z,86.96
2018-10-02T05:46:06.794Z,86.57
2018-10-02T05:48:35.690Z,87.19
2018-10-02T05:51:04.606Z,86.76
2018-10-02T05:53:33.501Z,86.79
2018-10-02T05:56:02.426Z,86.61
2018-10-02T05:58:31.467Z,87.03
2018-10-02T06:01:00.299Z,87.06
2018-10-02T06:03:29.189Z,86.68
2018-10-02T06:05:58.183Z,86.87
2018-10-02T06:08:27.113Z,86.88
2018-10-02T06:10:56.021Z,86.93
2018-10-02T06:13:25.089Z,87.40
2018-10-02T06:15:53.988Z,86.43
2018-10-02T06:18:22.917Z,87.11
2018-10-02T06:20:51.829Z,87.42
2018-10-02T06:23:20.787Z,87.50
2018-10-02T06:25:49.686Z,88.04
2018-10-02T06:28:18.629Z,88.35
2018-10-02T06:30:47.553Z,88.53
2018-10-02T06:33:16.455Z,88.17
2018-10-02T06:35:45.400Z,88.84
2018-10-02T06:38:14.452Z,89.03
2018-10-02T06:40:43.290Z,88.82
2018-10-02T06:43:12.303Z,89.15
2018-10-02T06:45:41.244Z,89.25
2018-10-02T06:48:10.157Z,89.27
2018-10-02T06:50:39.176Z,89.63
2018-10-02T06:53:08.074Z,90.05
2018-10-02T06:55:37.016Z,90.63
2018-10-02T06:58:05.949Z,90.55
2018-10-02T07:00:34.962Z,91.33
2018-10-02T07:03:03.854Z,90.71
2018-10-02T07:05:32.765Z,90.69
2018-10-02T07:08:01.698Z,91.12
2018-10-02T07:10:30.635Z,91.94
2018-10-02T07:12:59.560Z,92.02
2018-10-02T07:15:29.306Z,92.38
2018-10-02T07:17:58.185Z,92.27
2018-10-02T07:20:27.169Z,92.56
2018-10-02T07:22:56.098Z,92.83
2018-10-02T07:25:25.000Z,93.00
2018-10-02T07:27:54.044Z,93.18
2018-10-02T07:30:22.836Z,92.78
2018-10-02T07:32:51.866Z,92.53
2018-10-02T07:35:20.796Z,92.79
2018-10-02T07:37:49.782Z,92.44
2018-10-02T07:40:18.726Z,93.02
2018-10-02T07:42:47.679Z,93.46
2018-10-02T07:45:16.593Z,93.10
2018-10-02T07:47:45.581Z,92.89
2018-10-02T07:50:14.456Z,92.95
2018-10-02T07:52:43.456Z,92.94
2018-10-02T07:55:12.358Z,92.21
2018-10-02T07:57:41.251Z,92.78
2018-10-02T08:00:10.266Z,92.39
2018-10-02T08:02:39.178Z,92.77
2018-10-02T08:05:08.121Z,92.10
2018-10-02T08:07:37.056Z,92.88
2018-10-02T08:10:05.967Z,92.51
2018-10-02T08:12:34.901Z,92.19
2018-10-02T08:15:03.912Z,92.94
2018-10-02T08:17:32.887Z,92.65
2018-10-02T08:20:01.811Z,92.61
2018-10-02T08:22:30.775Z,93.84
2018-10-02T08:24:59.775Z,92.91
2018-10-02T08:27:28.681Z,92.79
2018-10-02T08:29:57.631Z,93.48
2018-10-02T08:32:26.617Z,93.24
2018-10-02T08:34:55.494Z,92.67
2018-10-02T08:37:24.471Z,93.80
2018-10-02T08:39:53.390Z,93.49
2018-10-02T08:42:22.354Z,93.53
2018-10-02T08:44:51.354Z,93.31
2018-10-02T08:47:20.262Z,94.20
2018-10-02T08:49:49.199Z,93.92
2018-10-02T08:52:18.204Z,93.93
2018-10-02T08:54:47.106Z,94.37
2018-10-02T08:57:16.028Z,93.69
2018-10-02T08:59:44.942Z,93.53
2018-10-02T09:02:13.893Z,94.74
2018-10-02T09:04:42.805Z,94.25
2018-10-02T09:07:11.776Z,94.92
2018-10-02T09:09:40.757Z,94.57
2018-10-02T09:12:09.739Z,94.84
2018-10-02T09:14:38.641Z,95.48
2018-10-02T09:17:07.675Z,95.91
2018-10-02T09:19:36.580Z,95.64
2018-10-02T09:22:05.639Z,96.04
2018-10-02T09:24:34.581Z,95.69
2018-10-02T09:27:03.456Z,96.14
2018-10-02T09:29:32.352Z,95.71
2018-10-02T09:32:06.560Z,96.09
2018-10-02T09:34:40.943Z,96.20
2018-10-02T09:37:15.414Z,96.49
2018-10-02T09:39:49.534Z,96.53
2018-10-02T09:42:23.905Z,95.77
2018-10-02T09:44:52.829Z,96.39
2018-10-02T09:47:21.925Z,96.82
2018-10-02T09:49:50.957Z,96.98
2018-10-02T09:52:19.855Z,96.55
2018-10-02T09:54:48.803Z,96.49
2018-10-02T09:57:17.799Z,96.74
2018-10-02T09:59:46.751Z,96.69
2018-10-02T10:02:21.041Z,96.37
2018-10-02T10:04:50.001Z,96.51
2018-10-02T10:07:18.933Z,96.53
2018-10-02T10:09:47.865Z,96.58
2018-10-02T10:12:16.781Z,96.79
2018-10-02T10:14:45.690Z,97.37
2018-10-02T10:17:14.776Z,97.47
2018-10-02T10:19:43.564Z,97.08
2018-10-02T10:22:12.511Z,97.23
2018-10-02T10:24:41.461Z,97.91
2018-10-02T10:27:10.519Z,98.10
2018-10-02T10:29:39.964Z,97.54
2018-10-02T10:32:09.198Z,96.91
2018-10-02T10:34:38.155Z,97.46
2018-10-02T10:37:07.080Z,97.03
2018-10-02T10:39:36.027Z,97.05
2018-10-02T10:42:04.923Z,97.20
2018-10-02T10:44:33.850Z,97.09
2018-10-02T10:47:02.881Z,96.64
2018-10-02T10:49:31.733Z,97.13
2018-10-02T10:52:00.677Z,97.49
2018-10-02T10:54:29.615Z,97.71
2018-10-02T10:56:58.727Z,97.22
2018-10-02T10:59:27.679Z,96.84
2018-10-02T11:01:56.631Z,97.37
2018-10-02T11:04:25.630Z,97.31
2018-10-02T11:06:54.558Z,98.14
2018-10-02T11:09:23.605Z,97.35
2018-10-02T11:11:52.503Z,97.25
2018-10-02T11:14:21.413Z,97.61
2018-10-02T11:16:53.430Z,97.91
2018-10-02T11:19:22.380Z,97.50
2018-10-02T11:21:51.300Z,97.86
2018-10-02T11:24:20.228Z,97.94
2018-10-02T11:26:49.142Z,97.35
2018-10-02T11:29:18.070Z,98.14
2018-10-02T11:31:47.049Z,97.91
2018-10-02T11:34:15.937Z,97.67
2018-10-02T11:36:44.833Z,97.58
2018-10-02T11:39:13.734Z,97.56
2018-10-02T11:41:42.673Z,97.96
2018-10-02T11:44:11.716Z,97.62
2018-10-02T11:46:40.572Z,97.64
2018-10-02T11:49:09.589Z,97.43
2018-10-02T11:51:38.828Z,97.31
2018-10-02T11:54:07.818Z,97.78
2018-10-02T11:56:37.393Z,97.00
2018-10-02T11:59:06.352Z,97.06
2018-10-02T12:01:35.302Z,97.50
2018-10-02T12:04:04.268Z,97.11
2018-10-02T12:06:33.255Z,97.22
2018-10-02T12:09:02.270Z,97.42
2018-10-02T12:11:31.263Z,97.59
2018-10-02T12:14:00.228Z,97.20
2018-10-02T12:16:29.085Z,96.76
2018-10-02T12:18:58.039Z,97.37
2018-10-02T12:21:26.968Z,97.49
2018-10-02T12:23:55.902Z,98.10
2018-10-02T12:26:24.853Z,97.59
2018-10-02T12:28:53.801Z,98.06
2018-10-02T12:31:22.865Z,97.76
2018-10-02T12:33:51.678Z,97.89
2018-10-02T12:36:20.597Z,98.42
2018-10-02T12:38:49.592Z,98.10
2018-10-02T12:41:18.497Z,98.32
2018-10-02T12:43:47.526Z,98.80
2018-10-02T12:46:16.523Z,98.75
2018-10-02T12:48:45.474Z,98.20
2018-10-02T12:51:14.436Z,98.46
2018-10-02T12:53:43.382Z,98.59
2018-10-02T12:56:12.314Z,98.36
2018-10-02T12:58:41.329Z,98.14
2018-10-02T13:01:10.325Z,97.83
2018-10-02T13:03:39.253Z,97.83
2018-10-02T13:06:08.168Z,98.35
2018-10-02T13:08:37.378Z,98.44
2018-10-02T13:11:06.291Z,98.91
2018-10-02T13:13:35.424Z,98.46
2018-10-02T13:16:04.378Z,98.21
2018-10-02T13:18:33.321Z,98.48
2018-10-02T13:21:02.216Z,98.13
2018-10-02T13:23:31.167Z,98.10
2018-10-02T13:26:00.092Z,97.85
2018-10-02T13:28:29.012Z,98.05
2018-10-02T13:30:57.966Z,98.29
2018-10-02T13:33:26.919Z,98.40
2018-10-02T13:35:55.863Z,98.89
2018-10-02T13:38:24.818Z,98.21
2018-10-02T13:40:53.721Z,98.10
2018-10-02T13:43:22.675Z,98.35
2018-10-02T13:45:51.650Z,98.63
2018-10-02T13:48:20.562Z,98.90
2018-10-02T13:50:49.489Z,98.72
2018-10-02T13:53:18.455Z,98.76
2018-10-02T13:55:47.379Z,98.35
2018-10-02T13:58:16.316Z,98.52
2018-10-02T14:00:45.392Z,98.68
2018-10-02T14:03:14.542Z,98.72
2018-10-02T14:05:43.507Z,98.00
2018-10-02T14:08:12.485Z,98.76
2018-10-02T14:10:41.365Z,98.41
2018-10-02T14:13:10.330Z,98.82
2018-10-02T14:15:39.336Z,98.47
2018-10-02T14:18:08.294Z,99.08
2018-10-02T14:20:37.318Z,98.24
2018-10-02T14:23:06.332Z,98.34
2018-10-02T14:25:35.329Z,98.72
2018-10-02T14:28:04.448Z,99.34
2018-10-02T14:30:33.549Z,99.67
2018-10-02T14:33:02.750Z,99.06
2018-10-02T14:35:31.749Z,99.20
2018-10-02T14:38:00.717Z,99.43
2018-10-02T14:40:29.718Z,99.96
2018-10-02T14:42:58.698Z,99.78
2018-10-02T14:45:27.612Z,100.00
2018-10-02T14:47:56.585Z,100.00
2018-10-02T14:50:25.532Z,100.00
2018-10-02T14:52:54.455Z,100.00
2018-10-02T14:55:23.416Z,100.00
2018-10-02T14:57:52.365Z,100.00
2018-10-02T15:00:21.262Z,99.80
2018-10-02T15:02:50.222Z,100.00
2018-10-02T15:05:19.753Z,100.00
2018-10-02T15:07:48.684Z,100.00
2018-10-02T15:10:17.632Z,100.00
2018-10-02T15:12:46.596Z,100.00
2018-10-02T15:15:15.511Z,100.00
2018-10-02T15:17:44.492Z,100.00
2018-10-02T15:20:13.440Z,100.00
2018-10-02T15:22:42.339Z,100.00
2018-10-02T15:25:11.289Z,100.00
2018-10-02T15:27:40.223Z,100.00
2018-10-02T15:30:09.164Z,100.00
2018-10-02T15:32:38.142Z,99.91
2018-10-02T15:35:07.058Z,100.00
2018-10-02T15:37:36.106Z,100.00
2018-10-02T15:40:05.026Z,100.00
2018-10-02T15:42:33.952Z,100.00
2018-10-02T15:45:02.915Z,99.92
2018-10-02T15:47:31.874Z,100.00
2018-10-02T15:50:00.797Z,100.00
2018-10-02T15:52:29.755Z,99.65
2018-10-02T15:54:58.673Z,99.42
2018-10-02T15:57:27.596Z,99.70
2018-10-02T15:59:56.558Z,99.66
2018-10-02T16:02:25.510Z,99.87
2018-10-02T16:04:54.483Z,99.60
2018-10-02T16:07:23.388Z,99.53
2018-10-02T16:09:52.467Z,99.23
2018-10-02T16:12:21.368Z,99.56
2018-10-02T16:14:50.379Z,99.89
2018-10-02T16:17:19.300Z,100.00
2018-10-02T16:19:48.233Z,100.00
2018-10-02T16:22:17.266Z,99.67
2018-10-02T16:24:46.174Z,99.26
2018-10-02T16:27:15.105Z,99.89
2018-10-02T16:29:44.010Z,99.66
2018-10-02T16:32:12.946Z,99.96
2018-10-02T16:34:49.287Z,99.66
2018-10-02T16:37:10.868Z,99.21
2018-10-02T16:39:39.784Z,99.48
2018-10-02T16:42:08.769Z,99.27
2018-10-02T16:44:37.682Z,99.84
2018-10-02T16:47:06.932Z,99.38
2018-10-02T16:49:35.855Z,99.84
2018-10-02T16:52:04.843Z,99.95
2018-10-02T16:54:33.941Z,99.90
2018-10-02T16:57:02.721Z,99.67
2018-10-02T16:59:31.692Z,100.00
2018-10-02T17:02:00.641Z,100.00
2018-10-02T17:04:29.620Z,100.00
2018-10-02T17:06:58.530Z,100.00
2018-10-02T17:09:27.720Z,100.00
2018-10-02T17:11:56.648Z,99.88
2018-10-02T17:14:25.598Z,100.00
2018-10-02T17:16:54.546Z,99.89
2018-10-02T17:19:23.452Z,99.12
2018-10-02T17:21:52.440Z,99.94
2018-10-02T17:24:21.408Z,99.69
2018-10-02T17:26:50.321Z,99.93
2018-10-02T17:29:19.236Z,99.14
2018-10-02T17:31:48.166Z,99.15
2018-10-02T17:34:17.074Z,98.95
2018-10-02T17:36:46.145Z,98.97
2018-10-02T17:39:15.134Z,98.77
2018-10-02T17:41:44.085Z,98.77
2018-10-02T17:44:12.994Z,97.48
2018-10-02T17:46:41.953Z,96.72
2018-10-02T17:49:10.900Z,96.50
2018-10-02T17:51:39.842Z,96.19
2018-10-02T17:54:08.817Z,96.38
2018-10-02T17:56:37.728Z,96.05
2018-10-02T17:59:06.689Z,95.74
2018-10-02T18:01:35.712Z,96.11
2018-10-02T18:04:04.616Z,96.14
2018-10-02T18:06:33.584Z,96.22
2018-10-02T18:09:02.560Z,94.94
2018-10-02T18:11:38.019Z,94.79
2018-10-02T18:14:07.135Z,94.16
2018-10-02T18:16:36.177Z,93.63
2018-10-02T18:19:05.169Z,93.26
2018-10-02T18:21:34.120Z,92.84
2018-10-02T18:24:03.029Z,93.03
2018-10-02T18:26:31.973Z,92.76
2018-10-02T18:29:00.952Z,92.93
2018-10-02T18:31:29.899Z,92.40
2018-10-02T18:33:58.830Z,92.75
2018-10-02T18:36:27.772Z,92.76
2018-10-02T18:38:56.752Z,92.09
2018-10-02T18:41:25.650Z,91.81
2018-10-02T18:43:54.586Z,91.41
2018-10-02T18:46:23.527Z,91.70
2018-10-02T18:48:52.513Z,91.13
2018-10-02T18:51:21.415Z,91.03
2018-10-02T18:53:50.362Z,90.83
2018-10-02T18:56:19.494Z,90.77
2018-10-02T18:58:48.247Z,91.00
2018-10-02T19:01:17.205Z,91.30
2018-10-02T19:03:46.172Z,91.04
2018-10-02T19:06:15.123Z,90.90
2018-10-02T19:08:49.520Z,91.37
2018-10-02T19:11:23.901Z,90.99
2018-10-02T19:13:52.819Z,90.74
2018-10-02T19:16:27.591Z,90.69
2018-10-02T19:18:56.591Z,91.31
2018-10-02T19:21:25.516Z,90.13
2018-10-02T19:23:54.441Z,90.50
2018-10-02T19:26:26.195Z,90.28
2018-10-02T19:28:55.223Z,90.02
2018-10-02T19:31:29.524Z,89.76
2018-10-02T19:33:59.002Z,88.74
2018-10-02T19:36:28.107Z,89.53
2018-10-02T19:39:02.853Z,88.71
2018-10-02T19:41:31.805Z,89.02
2018-10-02T19:44:00.800Z,89.60
2018-10-02T19:46:35.133Z,89.43
2018-10-02T19:49:04.102Z,89.12
2018-10-02T19:51:38.403Z,89.47
2018-10-02T19:54:07.394Z,88.29
2018-10-02T19:56:36.361Z,89.09
2018-10-02T19:59:05.327Z,87.80
2018-10-02T20:01:34.274Z,88.47
2018-10-02T20:04:03.271Z,88.38
2018-10-02T20:06:32.170Z,88.21
2018-10-02T20:09:01.133Z,87.50
2018-10-02T20:11:30.080Z,88.03
2018-10-02T20:13:58.996Z,87.85
2018-10-02T20:16:28.864Z,87.87
2018-10-02T20:18:57.783Z,88.62
2018-10-02T20:21:26.823Z,87.87
2018-10-02T20:23:55.759Z,88.71
2018-10-02T20:26:24.730Z,88.21
2018-10-02T20:28:53.664Z,88.31
2018-10-02T20:31:23.270Z,88.28
2018-10-02T20:33:52.239Z,88.67
2018-10-02T20:36:21.224Z,88.70
2018-10-02T20:38:50.145Z,88.69
2018-10-02T20:41:19.096Z,88.57
2018-10-02T20:43:48.223Z,89.01
2018-10-02T20:46:17.183Z,88.49
2018-10-02T20:48:46.137Z,88.98
2018-10-02T20:51:15.075Z,88.52
2018-10-02T20:53:44.048Z,88.91
2018-10-02T20:56:12.996Z,88.11
2018-10-02T20:58:41.974Z,88.70
2018-10-02T21:01:10.922Z,88.01
2018-10-02T21:03:39.873Z,88.10
2018-10-02T21:06:08.823Z,88.20
2018-10-02T21:08:37.823Z,89.07
2018-10-02T21:11:06.869Z,88.68
2018-10-02T21:13:35.855Z,88.76
2018-10-02T21:16:04.853Z,89.36
2018-10-02T21:18:33.769Z,89.11
2018-10-02T21:21:02.725Z,88.96
2018-10-02T21:23:31.693Z,89.43
2018-10-02T21:26:00.637Z,89.49
2018-10-02T21:28:29.550Z,89.11
2018-10-02T21:30:58.513Z,89.42
2018-10-02T21:33:27.561Z,89.35
2018-10-02T21:35:56.612Z,89.03
2018-10-02T21:38:25.665Z,89.13
2018-10-02T21:40:54.630Z,89.02
2018-10-02T21:43:23.615Z,88.88
2018-10-02T21:45:52.549Z,88.01
2018-10-02T21:48:21.552Z,88.52
2018-10-02T21:50:50.494Z,88.39
2018-10-02T21:53:19.434Z,87.89
2018-10-02T21:55:48.368Z,88.96
2018-10-02T21:58:17.326Z,87.98
2018-10-02T22:00:46.339Z,87.82
2018-10-02T22:03:15.275Z,87.79
2018-10-02T22:05:44.230Z,87.91
2018-10-02T22:08:13.230Z,88.93
2018-10-02T22:10:42.162Z,89.37
2018-10-02T22:13:11.214Z,89.92
2018-10-02T22:15:40.301Z,90.25
2018-10-02T22:18:09.213Z,89.43
2018-10-02T22:20:38.166Z,89.15
2018-10-02T22:23:07.316Z,89.60
2018-10-02T22:25:38.926Z,89.20
2018-10-02T22:28:09.767Z,89.27
2018-10-02T22:30:39.904Z,88.85
2018-10-02T22:33:09.681Z,88.30
2018-10-02T22:35:39.819Z,88.62
2018-10-02T22:38:09.580Z,88.39
2018-10-02T22:40:39.276Z,88.89
2018-10-02T22:43:08.999Z,88.36
2018-10-02T22:45:39.576Z,87.82
2018-10-02T22:48:08.569Z,87.96
2018-10-02T22:50:37.561Z,87.86
2018-10-02T22:53:06.485Z,87.26
2018-10-02T22:55:35.432Z,86.95
2018-10-02T22:58:04.394Z,87.85
2018-10-02T23:00:33.322Z,87.34
2018-10-02T23:03:02.307Z,87.01
2018-10-02T23:05:31.270Z,86.67
2018-10-02T23:08:00.196Z,87.18
2018-10-02T23:10:29.141Z,88.19
2018-10-02T23:12:58.103Z,88.85
2018-10-02T23:15:27.013Z,88.48
2018-10-02T23:17:55.980Z,88.49
2018-10-02T23:20:24.905Z,88.64
2018-10-02T23:22:53.856Z,88.55
2018-10-02T23:25:22.799Z,88.93
2018-10-02T23:27:51.798Z,88.25
2018-10-02T23:30:20.799Z,88.45
2018-10-02T23:32:49.794Z,88.65
2018-10-02T23:35:18.739Z,88.42
2018-10-02T23:37:47.709Z,88.54
2018-10-02T23:40:16.612Z,87.86
2018-10-02T23:42:45.673Z,88.41
2018-10-02T23:45:14.663Z,88.16
2018-10-02T23:47:43.655Z,88.15
2018-10-02T23:50:12.635Z,87.76
2018-10-02T23:52:41.820Z,87.47
2018-10-02T23:55:10.738Z,88.37
2018-10-02T23:57:39.673Z,87.63
